createdAt,value
2019-05-19T00:00:03.108Z,55.42
2019-05-19T00:01:03.262Z,58.11
2019-05-19T00:02:03.429Z,58.11
2019-05-19T00:03:03.602Z,54.44
2019-05-19T00:04:03.770Z,56.40
2019-05-19T00:05:03.938Z,54.93
2019-05-19T00:06:04.112Z,58.11
2019-05-19T00:07:04.284Z,58.84
2019-05-19T00:08:04.466Z,54.93
2019-05-19T00:09:04.623Z,54.69
2019-05-19T00:10:04.821Z,54.69
2019-05-19T00:11:04.980Z,55.18
2019-05-19T00:12:05.152Z,59.08
2019-05-19T00:13:05.351Z,58.59
2019-05-19T00:14:05.493Z,55.91
2019-05-19T00:15:05.697Z,55.18
2019-05-19T00:16:05.829Z,58.11
2019-05-19T00:17:06.002Z,59.08
2019-05-19T00:18:06.171Z,57.86
2019-05-19T00:19:06.343Z,55.91
2019-05-19T00:20:06.517Z,55.42
2019-05-19T00:21:06.686Z,58.84
2019-05-19T00:22:06.849Z,58.35
2019-05-19T00:23:07.018Z,54.93
2019-05-19T00:24:07.187Z,55.66
2019-05-19T00:25:07.354Z,59.57
2019-05-19T00:26:07.533Z,59.33
2019-05-19T00:27:07.694Z,58.35
2019-05-19T00:28:07.861Z,55.42
2019-05-19T00:29:08.026Z,55.18
2019-05-19T00:30:08.193Z,58.59
2019-05-19T00:31:08.371Z,59.33
2019-05-19T00:32:08.533Z,57.86
2019-05-19T00:33:08.706Z,55.18
2019-05-19T00:34:08.870Z,55.42
2019-05-19T00:35:09.041Z,55.66
2019-05-19T00:36:09.209Z,58.59
2019-05-19T00:37:09.380Z,58.84
2019-05-19T00:38:09.559Z,58.59
2019-05-19T00:39:09.723Z,55.42
2019-05-19T00:40:09.896Z,54.93
2019-05-19T00:41:10.064Z,58.59
2019-05-19T00:42:10.230Z,58.35
2019-05-19T00:43:10.399Z,58.84
2019-05-19T00:44:10.571Z,55.42
2019-05-19T00:45:10.779Z,57.13
2019-05-19T00:46:10.950Z,58.59
2019-05-19T00:47:11.128Z,58.59
2019-05-19T00:48:11.297Z,58.35
2019-05-19T00:49:11.467Z,55.66
2019-05-19T00:50:12.315Z,55.18
2019-05-19T00:51:11.861Z,58.35
2019-05-19T00:52:12.025Z,58.59
2019-05-19T00:53:12.193Z,58.11
2019-05-19T00:54:12.358Z,55.66
2019-05-19T00:55:12.527Z,55.66
2019-05-19T00:56:12.693Z,57.37
2019-05-19T00:57:12.859Z,58.59
2019-05-19T00:58:13.036Z,59.08
2019-05-19T00:59:13.198Z,55.66
2019-05-19T01:00:13.371Z,57.13
2019-05-19T01:01:13.538Z,55.91
2019-05-19T01:02:13.709Z,58.35
2019-05-19T01:03:13.873Z,58.84
2019-05-19T01:04:14.045Z,55.42
2019-05-19T01:05:14.219Z,55.66
2019-05-19T01:06:14.383Z,58.11
2019-05-19T01:07:14.552Z,58.84
2019-05-19T01:08:14.717Z,58.35
2019-05-19T01:09:14.888Z,56.40
2019-05-19T01:10:15.051Z,56.15
2019-05-19T01:11:15.228Z,58.59
2019-05-19T01:12:15.393Z,58.84
2019-05-19T01:13:15.568Z,56.15
2019-05-19T01:14:15.744Z,55.66
2019-05-19T01:15:15.907Z,57.13
2019-05-19T01:16:16.088Z,58.84
2019-05-19T01:17:16.251Z,58.59
2019-05-19T01:18:16.428Z,57.13
2019-05-19T01:19:16.590Z,55.66
2019-05-19T01:20:16.759Z,56.15
2019-05-19T01:21:16.939Z,57.37
2019-05-19T01:22:17.115Z,58.84
2019-05-19T01:23:17.270Z,58.84
2019-05-19T01:24:17.445Z,55.91
2019-05-19T01:25:17.611Z,56.40
2019-05-19T01:26:17.777Z,58.84
2019-05-19T01:27:17.959Z,58.84
2019-05-19T01:28:18.126Z,58.11
2019-05-19T01:29:18.292Z,56.15
2019-05-19T01:30:18.464Z,58.59
2019-05-19T01:31:18.633Z,59.08
2019-05-19T01:32:18.800Z,59.08
2019-05-19T01:33:18.969Z,56.15
2019-05-19T01:34:19.140Z,56.15
2019-05-19T01:35:19.307Z,57.62
2019-05-19T01:36:19.483Z,59.57
2019-05-19T01:37:19.651Z,59.33
2019-05-19T01:38:19.817Z,56.40
2019-05-19T01:39:19.988Z,56.40
2019-05-19T01:40:20.147Z,57.86
2019-05-19T01:41:20.327Z,59.08
2019-05-19T01:42:20.490Z,59.08
2019-05-19T01:43:20.657Z,56.40
2019-05-19T01:44:20.826Z,56.64
2019-05-19T01:45:20.993Z,56.64
2019-05-19T01:46:21.168Z,59.33
2019-05-19T01:47:21.334Z,59.33
2019-05-19T01:48:21.504Z,58.59
2019-05-19T01:49:21.680Z,56.64
2019-05-19T01:50:21.849Z,58.59
2019-05-19T01:51:22.012Z,59.33
2019-05-19T01:52:22.185Z,59.08
2019-05-19T01:53:22.363Z,56.40
2019-05-19T01:54:22.525Z,56.40
2019-05-19T01:55:22.696Z,58.59
2019-05-19T01:56:22.866Z,59.33
2019-05-19T01:57:23.034Z,59.08
2019-05-19T01:58:23.207Z,56.88
2019-05-19T01:59:23.378Z,57.13
2019-05-19T02:00:23.547Z,60.06
2019-05-19T02:01:23.722Z,59.33
2019-05-19T02:02:23.890Z,57.86
2019-05-19T02:03:24.059Z,57.13
2019-05-19T02:04:24.231Z,56.88
2019-05-19T02:05:24.401Z,58.84
2019-05-19T02:06:24.571Z,59.33
2019-05-19T02:07:24.764Z,56.88
2019-05-19T02:08:24.905Z,57.13
2019-05-19T02:09:25.098Z,56.88
2019-05-19T02:10:25.273Z,56.64
2019-05-19T02:11:25.446Z,59.33
2019-05-19T02:12:25.618Z,60.55
2019-05-19T02:13:25.788Z,57.86
2019-05-19T02:14:25.968Z,56.88
2019-05-19T02:15:26.130Z,57.13
2019-05-19T02:16:26.303Z,59.33
2019-05-19T02:17:26.480Z,59.57
2019-05-19T02:18:26.647Z,57.86
2019-05-19T02:19:26.821Z,57.37
2019-05-19T02:20:33.206Z,61.04
2019-05-19T02:21:27.143Z,60.55
2019-05-19T02:22:27.313Z,60.79
2019-05-19T02:23:27.481Z,60.30
2019-05-19T02:24:27.645Z,60.06
2019-05-19T02:25:27.819Z,60.79
2019-05-19T02:26:27.986Z,60.79
2019-05-19T02:27:28.150Z,61.28
2019-05-19T02:28:28.323Z,60.30
2019-05-19T02:29:28.493Z,59.81
2019-05-19T02:30:28.668Z,60.79
2019-05-19T02:31:28.837Z,61.28
2019-05-19T02:32:29.005Z,61.04
2019-05-19T02:33:29.172Z,60.06
2019-05-19T02:34:29.338Z,62.74
2019-05-19T02:35:29.511Z,59.57
2019-05-19T02:36:29.687Z,59.57
2019-05-19T02:37:29.851Z,59.57
2019-05-19T02:38:30.021Z,59.57
2019-05-19T02:39:30.191Z,58.59
2019-05-19T02:40:30.359Z,57.62
2019-05-19T02:41:30.530Z,60.06
2019-05-19T02:42:30.703Z,60.06
2019-05-19T02:43:30.871Z,60.06
2019-05-19T02:44:31.040Z,60.30
2019-05-19T02:45:31.204Z,57.37
2019-05-19T02:46:31.389Z,57.13
2019-05-19T02:47:31.557Z,57.62
2019-05-19T02:48:31.724Z,57.62
2019-05-19T02:49:31.888Z,57.37
2019-05-19T02:50:32.053Z,59.08
2019-05-19T02:51:32.244Z,59.08
2019-05-19T02:52:32.408Z,57.86
2019-05-19T02:53:32.604Z,57.37
2019-05-19T02:54:32.750Z,57.86
2019-05-19T02:55:32.924Z,57.37
2019-05-19T02:56:33.101Z,58.84
2019-05-19T02:57:33.265Z,59.33
2019-05-19T02:58:33.434Z,58.84
2019-05-19T02:59:33.607Z,59.57
2019-05-19T03:00:33.778Z,59.08
2019-05-19T03:01:33.953Z,60.79
2019-05-19T03:02:34.130Z,59.33
2019-05-19T03:03:34.286Z,60.06
2019-05-19T03:04:34.461Z,59.81
2019-05-19T03:05:34.622Z,60.30
2019-05-19T03:06:34.801Z,60.06
2019-05-19T03:07:34.966Z,60.30
2019-05-19T03:08:35.135Z,58.84
2019-05-19T03:09:35.304Z,60.06
2019-05-19T03:10:35.477Z,58.84
2019-05-19T03:11:35.643Z,58.84
2019-05-19T03:12:35.819Z,57.37
2019-05-19T03:13:35.983Z,57.62
2019-05-19T03:14:36.154Z,64.70
2019-05-19T03:15:36.321Z,62.26
2019-05-19T03:16:36.499Z,58.84
2019-05-19T03:17:36.661Z,59.33
2019-05-19T03:18:36.826Z,57.62
2019-05-19T03:19:36.998Z,57.86
2019-05-19T03:20:37.169Z,59.08
2019-05-19T03:21:37.346Z,58.84
2019-05-19T03:22:37.515Z,58.59
2019-05-19T03:23:37.685Z,57.37
2019-05-19T03:24:37.853Z,59.57
2019-05-19T03:25:38.016Z,59.08
2019-05-19T03:26:38.182Z,59.81
2019-05-19T03:27:38.355Z,59.81
2019-05-19T03:28:38.524Z,57.86
2019-05-19T03:29:38.689Z,58.11
2019-05-19T03:30:38.877Z,59.33
2019-05-19T03:31:41.553Z,59.33
2019-05-19T03:32:43.618Z,58.35
2019-05-19T03:33:39.417Z,58.35
2019-05-19T03:34:39.578Z,57.62
2019-05-19T03:35:42.130Z,58.11
2019-05-19T03:36:44.303Z,58.59
2019-05-19T03:37:43.527Z,58.35
2019-05-19T03:38:41.424Z,57.13
2019-05-19T03:39:40.382Z,64.45
2019-05-19T03:40:40.546Z,64.94
2019-05-19T03:41:45.246Z,62.99
2019-05-19T03:42:42.750Z,62.50
2019-05-19T03:43:45.471Z,60.30
2019-05-19T03:44:45.030Z,65.43
2019-05-19T03:45:44.333Z,57.62
2019-05-19T03:46:41.597Z,69.34
2019-05-19T03:47:41.741Z,58.35
2019-05-19T03:48:44.963Z,58.59
2019-05-19T03:49:44.990Z,57.86
2019-05-19T03:50:44.096Z,56.88
2019-05-19T03:51:42.346Z,57.37
2019-05-19T03:52:42.933Z,64.94
2019-05-19T03:53:42.736Z,65.67
2019-05-19T03:54:47.557Z,66.41
2019-05-19T03:55:43.116Z,64.70
2019-05-19T03:56:44.992Z,60.06
2019-05-19T03:57:43.409Z,56.88
2019-05-19T03:58:43.589Z,56.88
2019-05-19T03:59:43.759Z,60.06
2019-05-19T04:00:43.923Z,59.08
2019-05-19T04:01:44.089Z,58.11
2019-05-19T04:02:44.258Z,61.04
2019-05-19T04:03:44.433Z,61.52
2019-05-19T04:04:44.613Z,59.81
2019-05-19T04:05:44.851Z,60.79
2019-05-19T04:06:44.947Z,64.21
2019-05-19T04:07:45.124Z,62.74
2019-05-19T04:08:45.294Z,57.37
2019-05-19T04:09:45.459Z,58.59
2019-05-19T04:10:45.633Z,58.11
2019-05-19T04:11:45.798Z,57.62
2019-05-19T04:12:45.978Z,62.50
2019-05-19T04:13:46.168Z,63.23
2019-05-19T04:14:46.349Z,63.72
2019-05-19T04:15:46.506Z,64.45
2019-05-19T04:16:46.720Z,65.43
2019-05-19T04:17:46.890Z,65.43
2019-05-19T04:18:47.109Z,63.72
2019-05-19T04:19:47.218Z,57.13
2019-05-19T04:20:47.400Z,63.23
2019-05-19T04:21:49.535Z,62.50
2019-05-19T04:22:47.740Z,58.59
2019-05-19T04:23:47.913Z,66.16
2019-05-19T04:24:48.180Z,58.35
2019-05-19T04:25:48.246Z,57.37
2019-05-19T04:26:48.421Z,57.13
2019-05-19T04:27:48.591Z,56.64
2019-05-19T04:28:48.750Z,56.15
2019-05-19T04:29:48.940Z,59.57
2019-05-19T04:30:49.102Z,58.35
2019-05-19T04:31:49.273Z,57.37
2019-05-19T04:32:49.445Z,56.40
2019-05-19T04:33:49.618Z,55.91
2019-05-19T04:34:49.788Z,57.86
2019-05-19T04:35:49.962Z,57.86
2019-05-19T04:36:50.126Z,56.88
2019-05-19T04:37:50.296Z,56.64
2019-05-19T04:38:50.469Z,55.66
2019-05-19T04:39:50.638Z,58.35
2019-05-19T04:40:50.817Z,57.62
2019-05-19T04:41:50.990Z,57.86
2019-05-19T04:42:51.155Z,56.40
2019-05-19T04:43:51.327Z,59.33
2019-05-19T04:44:51.505Z,57.62
2019-05-19T04:45:51.675Z,57.13
2019-05-19T04:46:51.846Z,56.64
2019-05-19T04:47:52.013Z,55.91
2019-05-19T04:48:52.165Z,58.35
2019-05-19T04:49:52.348Z,57.86
2019-05-19T04:50:52.515Z,56.88
2019-05-19T04:52:05.992Z,56.40
2019-05-19T04:52:52.860Z,56.40
2019-05-19T04:53:53.030Z,56.64
2019-05-19T04:54:53.200Z,59.08
2019-05-19T04:55:53.378Z,59.08
2019-05-19T04:56:53.552Z,56.88
2019-05-19T04:57:53.712Z,57.37
2019-05-19T04:58:53.892Z,57.86
2019-05-19T04:59:54.051Z,55.42
2019-05-19T05:00:54.217Z,57.13
2019-05-19T05:01:54.383Z,63.96
2019-05-19T05:02:54.560Z,60.55
2019-05-19T05:03:54.719Z,62.01
2019-05-19T05:04:54.899Z,62.74
2019-05-19T05:05:55.059Z,61.04
2019-05-19T05:06:55.233Z,64.94
2019-05-19T05:07:55.402Z,60.55
2019-05-19T05:08:55.573Z,61.77
2019-05-19T05:09:55.744Z,61.28
2019-05-19T05:10:55.925Z,61.77
2019-05-19T05:11:56.084Z,60.06
2019-05-19T05:12:56.254Z,58.84
2019-05-19T05:13:56.422Z,62.26
2019-05-19T05:14:56.594Z,62.50
2019-05-19T05:15:56.757Z,56.64
2019-05-19T05:16:56.927Z,57.13
2019-05-19T05:17:57.097Z,57.37
2019-05-19T05:18:57.266Z,55.91
2019-05-19T05:19:57.439Z,56.15
2019-05-19T05:20:57.608Z,61.77
2019-05-19T05:21:57.768Z,57.62
2019-05-19T05:22:57.939Z,56.15
2019-05-19T05:23:58.102Z,56.15
2019-05-19T05:24:58.325Z,54.44
2019-05-19T05:25:58.450Z,57.13
2019-05-19T05:26:58.621Z,57.13
2019-05-19T05:27:58.793Z,54.69
2019-05-19T05:28:59.020Z,57.13
2019-05-19T05:29:59.130Z,53.47
2019-05-19T05:30:59.296Z,56.88
2019-05-19T05:31:59.454Z,57.13
2019-05-19T05:32:59.629Z,53.71
2019-05-19T05:33:59.806Z,53.22
2019-05-19T05:35:00.001Z,55.91
2019-05-19T05:36:00.159Z,56.64
2019-05-19T05:37:00.328Z,56.40
2019-05-19T05:38:00.491Z,54.20
2019-05-19T05:39:00.654Z,52.98
2019-05-19T05:40:00.823Z,55.66
2019-05-19T05:41:00.999Z,56.88
2019-05-19T05:42:01.212Z,53.22
2019-05-19T05:43:01.373Z,52.73
2019-05-19T05:44:01.546Z,52.25
2019-05-19T05:45:01.715Z,56.15
2019-05-19T05:46:01.895Z,60.06
2019-05-19T05:47:02.053Z,53.22
2019-05-19T05:48:02.331Z,54.69
2019-05-19T05:49:02.398Z,57.37
2019-05-19T05:50:02.594Z,62.50
2019-05-19T05:51:02.746Z,64.94
2019-05-19T05:52:02.923Z,63.72
2019-05-19T05:53:03.086Z,62.99
2019-05-19T05:54:03.259Z,51.27
2019-05-19T05:55:03.429Z,55.66
2019-05-19T05:56:03.593Z,55.18
2019-05-19T05:57:03.766Z,52.25
2019-05-19T05:58:03.936Z,52.98
2019-05-19T05:59:04.103Z,55.42
2019-05-19T06:00:04.275Z,55.66
2019-05-19T06:01:04.447Z,54.93
2019-05-19T06:02:04.610Z,50.54
2019-05-19T06:03:04.779Z,54.69
2019-05-19T06:04:04.952Z,55.42
2019-05-19T06:05:05.122Z,54.93
2019-05-19T06:06:05.301Z,55.66
2019-05-19T06:07:05.463Z,51.03
2019-05-19T06:08:05.637Z,50.05
2019-05-19T06:09:05.811Z,60.79
2019-05-19T06:10:06.345Z,64.21
2019-05-19T06:11:06.193Z,58.11
2019-05-19T06:12:06.364Z,62.74
2019-05-19T06:13:06.541Z,63.72
2019-05-19T06:14:06.710Z,59.81
2019-05-19T06:15:06.882Z,58.59
2019-05-19T06:16:07.087Z,54.44
2019-05-19T06:17:07.256Z,58.84
2019-05-19T06:18:07.430Z,59.08
2019-05-19T06:19:07.601Z,60.55
2019-05-19T06:20:08.175Z,60.30
2019-05-19T06:21:07.949Z,59.57
2019-05-19T06:22:08.122Z,57.62
2019-05-19T06:23:08.304Z,51.03
2019-05-19T06:24:08.479Z,50.54
2019-05-19T06:25:08.650Z,57.62
2019-05-19T06:26:08.827Z,57.86
2019-05-19T06:27:08.984Z,58.59
2019-05-19T06:28:09.158Z,58.11
2019-05-19T06:29:09.367Z,58.35
2019-05-19T06:30:09.551Z,57.86
2019-05-19T06:31:09.686Z,58.59
2019-05-19T06:32:09.854Z,60.06
2019-05-19T06:33:10.020Z,60.79
2019-05-19T06:34:10.188Z,60.55
2019-05-19T06:35:10.370Z,52.73
2019-05-19T06:36:10.536Z,53.47
2019-05-19T06:37:10.712Z,50.78
2019-05-19T06:38:10.879Z,52.98
2019-05-19T06:39:11.065Z,58.35
2019-05-19T06:40:11.236Z,60.06
2019-05-19T06:41:11.413Z,51.27
2019-05-19T06:42:11.579Z,50.05
2019-05-19T06:43:11.989Z,51.03
2019-05-19T06:44:11.862Z,57.86
2019-05-19T06:45:12.031Z,56.88
2019-05-19T06:46:12.193Z,56.88
2019-05-19T06:47:12.378Z,53.71
2019-05-19T06:48:12.585Z,57.37
2019-05-19T06:49:12.830Z,52.49
2019-05-19T06:50:12.857Z,58.59
2019-05-19T06:51:13.025Z,56.64
2019-05-19T06:52:13.196Z,57.37
2019-05-19T06:53:14.708Z,60.06
2019-05-19T06:54:13.712Z,57.62
2019-05-19T06:55:13.678Z,59.57
2019-05-19T06:56:13.838Z,60.30
2019-05-19T06:57:14.028Z,61.52
2019-05-19T06:58:14.202Z,62.01
2019-05-19T06:59:14.372Z,61.77
2019-05-19T07:00:14.548Z,61.52
2019-05-19T07:01:14.709Z,62.50
2019-05-19T07:02:14.885Z,61.52
2019-05-19T07:03:15.065Z,57.13
2019-05-19T07:04:15.535Z,63.23
2019-05-19T07:05:15.392Z,56.88
2019-05-19T07:06:15.570Z,56.40
2019-05-19T07:07:15.738Z,57.13
2019-05-19T07:08:16.220Z,56.40
2019-05-19T07:09:16.104Z,55.91
2019-05-19T07:10:16.262Z,51.51
2019-05-19T07:11:16.442Z,50.29
2019-05-19T07:12:16.601Z,56.40
2019-05-19T07:13:16.774Z,56.88
2019-05-19T07:14:17.084Z,57.13
2019-05-19T07:15:17.236Z,59.81
2019-05-19T07:16:17.308Z,70.07
2019-05-19T07:17:17.491Z,58.35
2019-05-19T07:18:17.715Z,57.13
2019-05-19T07:19:17.873Z,56.40
2019-05-19T07:20:18.034Z,56.15
2019-05-19T07:21:18.398Z,54.93
2019-05-19T07:22:18.362Z,55.66
2019-05-19T07:23:27.944Z,55.91
2019-05-19T07:24:18.714Z,55.91
2019-05-19T07:25:18.901Z,56.64
2019-05-19T07:26:19.248Z,57.13
2019-05-19T07:27:19.267Z,54.93
2019-05-19T07:28:19.451Z,55.66
2019-05-19T07:29:19.622Z,54.20
2019-05-19T07:30:19.796Z,63.23
2019-05-19T07:31:19.988Z,53.96
2019-05-19T07:32:20.814Z,54.69
2019-05-19T07:33:20.442Z,53.96
2019-05-19T07:34:20.632Z,54.93
2019-05-19T07:35:20.765Z,52.73
2019-05-19T07:36:20.969Z,50.54
2019-05-19T07:37:21.149Z,55.66
2019-05-19T07:38:21.337Z,54.93
2019-05-19T07:39:21.516Z,54.44
2019-05-19T07:40:21.698Z,55.91
2019-05-19T07:41:21.880Z,50.78
2019-05-19T07:42:22.068Z,55.66
2019-05-19T07:43:22.312Z,53.47
2019-05-19T07:44:22.442Z,53.71
2019-05-19T07:45:22.674Z,54.69
2019-05-19T07:46:22.838Z,55.18
2019-05-19T07:47:23.029Z,53.71
2019-05-19T07:48:23.208Z,53.71
2019-05-19T07:49:23.418Z,56.88
2019-05-19T07:50:23.588Z,54.44
2019-05-19T07:51:23.763Z,53.96
2019-05-19T07:52:23.943Z,53.96
2019-05-19T07:53:24.169Z,54.20
2019-05-19T07:54:24.361Z,54.44
2019-05-19T07:55:24.549Z,51.51
2019-05-19T07:56:24.735Z,54.93
2019-05-19T07:57:24.930Z,53.71
2019-05-19T07:58:25.105Z,54.20
2019-05-19T07:59:25.276Z,54.69
2019-05-19T08:00:25.469Z,54.93
2019-05-19T08:01:25.649Z,47.85
2019-05-19T08:02:25.837Z,53.71
2019-05-19T08:03:26.020Z,55.91
2019-05-19T08:04:26.202Z,53.22
2019-05-19T08:05:26.397Z,57.37
2019-05-19T08:06:26.573Z,53.96
2019-05-19T08:07:26.763Z,53.22
2019-05-19T08:08:26.954Z,53.71
2019-05-19T08:09:27.127Z,53.96
2019-05-19T08:10:27.451Z,53.47
2019-05-19T08:11:27.503Z,53.96
2019-05-19T08:12:27.688Z,53.71
2019-05-19T08:13:27.868Z,55.91
2019-05-19T08:14:28.054Z,54.93
2019-05-19T08:15:28.235Z,47.36
2019-05-19T08:16:28.418Z,51.03
2019-05-19T08:17:28.609Z,55.66
2019-05-19T08:18:28.809Z,53.96
2019-05-19T08:19:29.002Z,53.22
2019-05-19T08:20:29.191Z,53.71
2019-05-19T08:21:29.360Z,53.96
2019-05-19T08:22:29.546Z,54.69
2019-05-19T08:23:29.742Z,54.44
2019-05-19T08:24:29.918Z,53.47
2019-05-19T08:25:30.174Z,53.47
2019-05-19T08:26:30.282Z,54.69
2019-05-19T08:27:30.606Z,54.44
2019-05-19T08:28:30.634Z,54.44
2019-05-19T08:29:31.099Z,53.47
2019-05-19T08:30:31.499Z,54.44
2019-05-19T08:31:31.238Z,51.27
2019-05-19T08:32:31.652Z,54.69
2019-05-19T08:33:31.577Z,56.88
2019-05-19T08:34:31.826Z,58.11
2019-05-19T08:35:33.341Z,55.42
2019-05-19T08:36:32.235Z,53.47
2019-05-19T08:37:32.421Z,53.47
2019-05-19T08:38:32.454Z,53.47
2019-05-19T08:39:33.169Z,53.71
2019-05-19T08:40:32.675Z,54.93
2019-05-19T08:41:33.604Z,53.22
2019-05-19T08:42:33.884Z,53.47
2019-05-19T08:43:33.607Z,56.40
2019-05-19T08:44:33.868Z,46.88
2019-05-19T08:45:36.799Z,46.39
2019-05-19T08:46:35.585Z,52.73
2019-05-19T08:47:34.537Z,55.18
2019-05-19T08:48:35.554Z,52.73
2019-05-19T08:49:34.497Z,52.25
2019-05-19T08:50:34.506Z,53.47
2019-05-19T08:51:35.118Z,52.98
2019-05-19T08:52:36.487Z,59.08
2019-05-19T08:53:36.104Z,58.84
2019-05-19T08:54:35.930Z,57.13
2019-05-19T08:55:37.900Z,57.62
2019-05-19T08:56:36.581Z,57.37
2019-05-19T08:57:37.615Z,58.11
2019-05-19T08:58:36.117Z,58.11
2019-05-19T08:59:37.483Z,56.15
2019-05-19T09:00:38.558Z,57.37
2019-05-19T09:01:36.558Z,58.84
2019-05-19T09:02:37.378Z,57.86
2019-05-19T09:03:36.853Z,58.11
2019-05-19T09:04:37.052Z,62.26
2019-05-19T09:05:37.321Z,58.11
2019-05-19T09:06:38.172Z,58.35
2019-05-19T09:07:40.260Z,64.94
2019-05-19T09:08:38.316Z,58.35
2019-05-19T09:09:39.744Z,58.11
2019-05-19T09:10:39.255Z,58.11
2019-05-19T09:11:38.794Z,62.01
2019-05-19T09:12:38.485Z,56.64
2019-05-19T09:13:39.816Z,53.47
2019-05-19T09:14:38.904Z,50.05
2019-05-19T09:15:39.011Z,48.83
2019-05-19T09:16:39.633Z,55.18
2019-05-19T09:17:39.287Z,52.25
2019-05-19T09:18:39.492Z,53.47
2019-05-19T09:19:40.646Z,52.98
2019-05-19T09:20:39.877Z,54.44
2019-05-19T09:21:40.153Z,58.11
2019-05-19T09:22:42.109Z,52.98
2019-05-19T09:23:41.347Z,54.20
2019-05-19T09:24:40.899Z,53.96
2019-05-19T09:25:41.303Z,52.98
2019-05-19T09:26:42.508Z,52.73
2019-05-19T09:27:41.815Z,52.73
2019-05-19T09:28:41.394Z,55.66
2019-05-19T09:29:42.604Z,53.22
2019-05-19T09:30:42.536Z,52.49
2019-05-19T09:31:41.890Z,54.44
2019-05-19T09:32:42.195Z,48.58
2019-05-19T09:33:42.217Z,53.96
2019-05-19T09:34:43.770Z,53.96
2019-05-19T09:35:43.593Z,54.69
2019-05-19T09:36:44.577Z,55.18
2019-05-19T09:37:44.293Z,56.64
2019-05-19T09:38:43.665Z,55.91
2019-05-19T09:39:43.324Z,56.15
2019-05-19T09:40:43.512Z,56.88
2019-05-19T09:41:43.694Z,60.79
2019-05-19T09:42:43.890Z,61.04
2019-05-19T09:43:44.810Z,58.84
2019-05-19T09:44:45.414Z,58.11
2019-05-19T09:45:45.218Z,57.37
2019-05-19T09:46:44.809Z,56.40
2019-05-19T09:47:46.620Z,55.91
2019-05-19T09:48:44.949Z,58.35
2019-05-19T09:49:45.185Z,55.66
2019-05-19T09:50:45.362Z,55.66
2019-05-19T09:51:45.838Z,56.40
2019-05-19T09:52:46.614Z,55.66
2019-05-19T09:53:46.541Z,53.71
2019-05-19T09:54:46.697Z,56.64
2019-05-19T09:55:46.266Z,54.44
2019-05-19T09:56:46.465Z,57.13
2019-05-19T09:57:46.649Z,53.96
2019-05-19T09:58:46.846Z,54.93
2019-05-19T09:59:47.033Z,53.47
2019-05-19T10:00:47.210Z,55.66
2019-05-19T10:01:48.629Z,53.47
2019-05-19T10:02:47.583Z,53.47
2019-05-19T10:03:47.760Z,53.47
2019-05-19T10:04:48.928Z,53.71
2019-05-19T10:05:48.196Z,49.56
2019-05-19T10:06:48.407Z,50.05
2019-05-19T10:07:48.544Z,55.18
2019-05-19T10:08:48.742Z,53.22
2019-05-19T10:09:48.938Z,53.96
2019-05-19T10:10:49.120Z,53.96
2019-05-19T10:11:50.934Z,52.00
2019-05-19T10:12:49.797Z,51.76
2019-05-19T10:13:49.977Z,54.93
2019-05-19T10:14:50.753Z,56.64
2019-05-19T10:15:50.423Z,53.22
2019-05-19T10:16:50.563Z,54.20
2019-05-19T10:17:50.786Z,54.20
2019-05-19T10:18:50.695Z,55.18
2019-05-19T10:19:52.062Z,55.42
2019-05-19T10:20:52.134Z,54.93
2019-05-19T10:21:51.295Z,54.44
2019-05-19T10:22:52.222Z,59.81
2019-05-19T10:23:51.995Z,58.11
2019-05-19T10:25:10.466Z,58.35
2019-05-19T10:25:51.948Z,57.62
2019-05-19T10:26:52.254Z,52.73
2019-05-19T10:27:52.366Z,53.22
2019-05-19T10:28:52.541Z,53.47
2019-05-19T10:29:53.289Z,52.49
2019-05-19T10:30:52.686Z,44.68
2019-05-19T10:31:54.514Z,52.25
2019-05-19T10:32:52.995Z,52.25
2019-05-19T10:33:53.187Z,52.73
2019-05-19T10:34:53.456Z,52.73
2019-05-19T10:35:53.475Z,52.49
2019-05-19T10:36:53.683Z,53.47
2019-05-19T10:37:53.957Z,52.25
2019-05-19T10:38:54.557Z,52.25
2019-05-19T10:39:55.327Z,52.98
2019-05-19T10:40:54.307Z,52.25
2019-05-19T10:41:54.812Z,52.00
2019-05-19T10:42:54.786Z,55.91
2019-05-19T10:43:54.884Z,52.73
2019-05-19T10:44:55.103Z,51.76
2019-05-19T10:45:55.168Z,56.64
2019-05-19T10:46:55.226Z,58.35
2019-05-19T10:47:55.455Z,58.35
2019-05-19T10:48:55.573Z,57.13
2019-05-19T10:49:55.614Z,57.86
2019-05-19T10:50:55.950Z,58.59
2019-05-19T10:51:58.061Z,58.35
2019-05-19T10:52:57.296Z,57.13
2019-05-19T10:53:56.608Z,56.15
2019-05-19T10:54:56.685Z,56.88
2019-05-19T10:55:56.928Z,56.64
2019-05-19T10:56:57.195Z,58.84
2019-05-19T10:57:57.305Z,59.08
2019-05-19T10:58:57.731Z,57.86
2019-05-19T10:59:57.632Z,59.33
2019-05-19T11:00:59.662Z,59.08
2019-05-19T11:01:58.136Z,60.06
2019-05-19T11:02:58.380Z,60.55
2019-05-19T11:03:58.707Z,58.59
2019-05-19T11:04:58.762Z,56.88
2019-05-19T11:05:58.971Z,57.13
2019-05-19T11:06:59.313Z,61.28
2019-05-19T11:07:59.133Z,57.13
2019-05-19T11:08:59.580Z,56.40
2019-05-19T11:09:59.794Z,59.08
2019-05-19T11:11:00.074Z,55.66
2019-05-19T11:12:00.175Z,57.37
2019-05-19T11:13:00.335Z,53.71
2019-05-19T11:14:00.405Z,57.86
2019-05-19T11:15:00.608Z,53.71
2019-05-19T11:16:00.712Z,54.44
2019-05-19T11:17:00.823Z,59.33
2019-05-19T11:18:00.811Z,60.79
2019-05-19T11:19:00.996Z,56.40
2019-05-19T11:20:01.264Z,58.35
2019-05-19T11:21:01.587Z,61.04
2019-05-19T11:22:02.021Z,59.81
2019-05-19T11:23:03.475Z,62.26
2019-05-19T11:24:02.094Z,55.42
2019-05-19T11:25:03.089Z,59.08
2019-05-19T11:26:02.950Z,55.66
2019-05-19T11:27:02.672Z,54.93
2019-05-19T11:28:02.868Z,61.52
2019-05-19T11:29:02.950Z,63.23
2019-05-19T11:30:03.104Z,54.69
2019-05-19T11:31:03.386Z,54.20
2019-05-19T11:32:03.603Z,55.66
2019-05-19T11:33:03.827Z,54.69
2019-05-19T11:34:04.110Z,53.96
2019-05-19T11:35:03.973Z,51.03
2019-05-19T11:36:04.267Z,57.62
2019-05-19T11:37:07.218Z,53.96
2019-05-19T11:38:04.471Z,56.40
2019-05-19T11:39:04.708Z,54.93
2019-05-19T11:40:04.928Z,54.93
2019-05-19T11:41:04.991Z,54.44
2019-05-19T11:42:05.509Z,53.71
2019-05-19T11:43:05.309Z,53.96
2019-05-19T11:44:05.502Z,54.20
2019-05-19T11:45:05.729Z,56.88
2019-05-19T11:46:05.970Z,54.93
2019-05-19T11:47:05.992Z,54.93
2019-05-19T11:48:05.965Z,53.47
2019-05-19T11:49:06.547Z,53.71
2019-05-19T11:50:06.235Z,51.03
2019-05-19T11:51:07.685Z,49.56
2019-05-19T11:52:06.702Z,53.96
2019-05-19T11:53:06.765Z,53.96
2019-05-19T11:54:07.648Z,54.20
2019-05-19T11:55:08.287Z,54.44
2019-05-19T11:56:10.985Z,54.69
2019-05-19T11:57:07.375Z,54.69
2019-05-19T11:58:07.556Z,54.69
2019-05-19T11:59:07.730Z,54.69
2019-05-19T12:00:07.935Z,54.69
2019-05-19T12:01:08.142Z,54.20
2019-05-19T12:02:08.288Z,53.96
2019-05-19T12:03:08.463Z,54.20
2019-05-19T12:04:08.715Z,54.69
2019-05-19T12:05:09.336Z,54.44
2019-05-19T12:06:11.565Z,54.20
2019-05-19T12:07:09.213Z,55.42
2019-05-19T12:08:09.394Z,54.69
2019-05-19T12:09:09.580Z,54.20
2019-05-19T12:10:10.404Z,49.80
2019-05-19T12:11:09.906Z,51.27
2019-05-19T12:12:11.363Z,54.69
2019-05-19T12:13:10.302Z,54.93
2019-05-19T12:14:10.500Z,60.55
2019-05-19T12:15:10.651Z,54.20
2019-05-19T12:16:11.581Z,54.20
2019-05-19T12:17:11.708Z,62.99
2019-05-19T12:18:11.211Z,58.11
2019-05-19T12:19:11.364Z,60.79
2019-05-19T12:20:11.545Z,60.06
2019-05-19T12:21:11.745Z,57.13
2019-05-19T12:22:11.915Z,56.88
2019-05-19T12:23:12.095Z,65.92
2019-05-19T12:24:12.269Z,59.57
2019-05-19T12:25:12.462Z,55.66
2019-05-19T12:26:22.726Z,61.28
2019-05-19T12:27:12.990Z,57.86
2019-05-19T12:28:12.952Z,58.35
2019-05-19T12:29:13.362Z,58.59
2019-05-19T12:30:13.546Z,58.84
2019-05-19T12:31:13.983Z,58.84
2019-05-19T12:32:14.967Z,59.57
2019-05-19T12:33:15.198Z,58.35
2019-05-19T12:34:16.936Z,56.64
2019-05-19T12:35:14.953Z,60.06
2019-05-19T12:36:14.781Z,59.08
2019-05-19T12:37:14.622Z,54.69
2019-05-19T12:38:15.054Z,57.13
2019-05-19T12:39:15.334Z,55.66
2019-05-19T12:40:15.569Z,51.03
2019-05-19T12:41:15.905Z,52.00
2019-05-19T12:42:15.779Z,56.15
2019-05-19T12:43:15.770Z,56.40
2019-05-19T12:44:15.906Z,54.69
2019-05-19T12:45:17.368Z,55.42
2019-05-19T12:46:16.889Z,54.44
2019-05-19T12:47:16.567Z,59.33
2019-05-19T12:48:17.679Z,59.57
2019-05-19T12:49:16.731Z,58.35
2019-05-19T12:50:16.681Z,60.55
2019-05-19T12:51:17.684Z,59.57
2019-05-19T12:52:16.984Z,57.86
2019-05-19T12:53:18.751Z,60.55
2019-05-19T12:54:17.378Z,60.06